sensor_id;sensor_type;location;lat;lon;timestamp;pressure;altitude;pressure_sealevel;temperature;humidity
55066;BME280;40964;42.114;24.220;2023-07-31T00:02:15;97259.94;;;23.76;49.94
55066;BME280;40964;42.114;24.220;2023-07-31T00:04:40;97256.47;;;23.67;49.99
55066;BME280;40964;42.114;24.220;2023-07-31T00:07:06;97254.22;;;23.61;49.94
55066;BME280;40964;42.114;24.220;2023-07-31T00:09:32;97257.84;;;23.56;50.06
55066;BME280;40964;42.114;24.220;2023-07-31T00:11:58;97247.88;;;23.48;49.73
55066;BME280;40964;42.114;24.220;2023-07-31T00:14:24;97256.72;;;23.57;49.64
55066;BME280;40964;42.114;24.220;2023-07-31T00:16:49;97255.16;;;23.56;50.20
55066;BME280;40964;42.114;24.220;2023-07-31T00:19:15;97250.41;;;23.53;49.89
55066;BME280;40964;42.114;24.220;2023-07-31T00:21:40;97259.56;;;23.52;50.46
55066;BME280;40964;42.114;24.220;2023-07-31T00:24:05;97259.09;;;23.50;50.10
55066;BME280;40964;42.114;24.220;2023-07-31T00:26:31;97274.06;;;23.42;50.74
55066;BME280;40964;42.114;24.220;2023-07-31T00:28:56;97271.19;;;23.30;50.52
55066;BME280;40964;42.114;24.220;2023-07-31T00:31:22;97274.63;;;23.22;50.97
55066;BME280;40964;42.114;24.220;2023-07-31T00:33:47;97278.59;;;23.25;50.95
55066;BME280;40964;42.114;24.220;2023-07-31T00:36:12;97267.69;;;23.21;51.01
55066;BME280;40964;42.114;24.220;2023-07-31T00:38:38;97276.38;;;23.27;50.89
55066;BME280;40964;42.114;24.220;2023-07-31T00:41:03;97282.38;;;23.23;51.00
55066;BME280;40964;42.114;24.220;2023-07-31T00:43:29;97278.44;;;23.21;50.36
55066;BME280;40964;42.114;24.220;2023-07-31T00:45:54;97281.59;;;23.23;50.89
55066;BME280;40964;42.114;24.220;2023-07-31T00:48:21;97289.78;;;23.27;50.73
55066;BME280;40964;42.114;24.220;2023-07-31T00:50:46;97295.16;;;23.27;51.22
55066;BME280;40964;42.114;24.220;2023-07-31T00:53:13;97294.38;;;23.26;50.64
55066;BME280;40964;42.114;24.220;2023-07-31T00:55:39;97301.13;;;23.15;50.43
55066;BME280;40964;42.114;24.220;2023-07-31T00:58:04;97298.94;;;22.86;51.94
55066;BME280;40964;42.114;24.220;2023-07-31T01:00:30;97292.47;;;22.64;53.04
55066;BME280;40964;42.114;24.220;2023-07-31T01:02:55;97285.06;;;22.61;54.08
55066;BME280;40964;42.114;24.220;2023-07-31T01:05:29;97289.19;;;22.67;55.69
55066;BME280;40964;42.114;24.220;2023-07-31T01:11:15;97265.03;;;22.90;58.56
55066;BME280;40964;42.114;24.220;2023-07-31T01:13:42;97270.94;;;23.09;57.51
55066;BME280;40964;42.114;24.220;2023-07-31T01:16:08;97271.63;;;23.23;59.91
55066;BME280;40964;42.114;24.220;2023-07-31T01:18:33;97266.31;;;23.41;60.27
55066;BME280;40964;42.114;24.220;2023-07-31T01:24:22;97269.88;;;23.67;59.83
55066;BME280;40964;42.114;24.220;2023-07-31T01:27:14;97259.28;;;23.71;58.64
55066;BME280;40964;42.114;24.220;2023-07-31T01:30:03;97254.25;;;23.78;57.14
55066;BME280;40964;42.114;24.220;2023-07-31T01:32:29;97264.19;;;23.77;56.99
55066;BME280;40964;42.114;24.220;2023-07-31T01:34:55;97252.81;;;23.63;57.24
55066;BME280;40964;42.114;24.220;2023-07-31T01:37:28;97272.91;;;23.83;56.74
55066;BME280;40964;42.114;24.220;2023-07-31T01:39:53;97276.84;;;23.86;56.55
55066;BME280;40964;42.114;24.220;2023-07-31T01:42:19;97276.22;;;23.89;56.82
55066;BME280;40964;42.114;24.220;2023-07-31T01:44:44;97281.13;;;23.95;56.39
55066;BME280;40964;42.114;24.220;2023-07-31T01:47:10;97285.06;;;23.98;56.69
55066;BME280;40964;42.114;24.220;2023-07-31T01:49:35;97284.28;;;23.97;59.78
55066;BME280;40964;42.114;24.220;2023-07-31T01:52:00;97280.19;;;23.91;62.56
55066;BME280;40964;42.114;24.220;2023-07-31T01:54:26;97276.84;;;23.77;66.79
55066;BME280;40964;42.114;24.220;2023-07-31T01:56:51;97276.19;;;23.63;69.14
55066;BME280;40964;42.114;24.220;2023-07-31T01:59:17;97275.97;;;23.50;71.07
55066;BME280;40964;42.114;24.220;2023-07-31T02:01:42;97285.53;;;23.26;74.48
55066;BME280;40964;42.114;24.220;2023-07-31T02:04:08;97286.81;;;22.88;75.95
55066;BME280;40964;42.114;24.220;2023-07-31T02:06:33;97283.22;;;22.71;78.42
55066;BME280;40964;42.114;24.220;2023-07-31T02:08:58;97283.56;;;22.47;81.21
55066;BME280;40964;42.114;24.220;2023-07-31T02:11:24;97278.38;;;22.28;82.57
55066;BME280;40964;42.114;24.220;2023-07-31T02:13:49;97278.94;;;22.02;85.55
55066;BME280;40964;42.114;24.220;2023-07-31T02:16:15;97282.84;;;21.96;87.36
55066;BME280;40964;42.114;24.220;2023-07-31T02:18:40;97280.47;;;21.81;87.88
55066;BME280;40964;42.114;24.220;2023-07-31T02:21:06;97284.75;;;21.82;88.14
55066;BME280;40964;42.114;24.220;2023-07-31T02:23:31;97277.72;;;21.72;89.56
55066;BME280;40964;42.114;24.220;2023-07-31T02:25:56;97278.56;;;21.59;89.65
55066;BME280;40964;42.114;24.220;2023-07-31T02:28:22;97270.22;;;21.47;91.45
55066;BME280;40964;42.114;24.220;2023-07-31T02:30:47;97275.22;;;21.40;92.01
55066;BME280;40964;42.114;24.220;2023-07-31T02:33:15;97257.19;;;21.32;92.47
55066;BME280;40964;42.114;24.220;2023-07-31T02:35:41;97254.00;;;21.30;93.36
55066;BME280;40964;42.114;24.220;2023-07-31T02:38:07;97247.66;;;21.25;94.70
55066;BME280;40964;42.114;24.220;2023-07-31T02:40:32;97239.53;;;21.17;93.84
55066;BME280;40964;42.114;24.220;2023-07-31T02:42:58;97241.31;;;21.08;95.34
55066;BME280;40964;42.114;24.220;2023-07-31T02:45:23;97233.97;;;21.00;95.57
55066;BME280;40964;42.114;24.220;2023-07-31T02:47:48;97237.25;;;20.96;95.82
55066;BME280;40964;42.114;24.220;2023-07-31T02:50:14;97235.28;;;20.88;96.42
55066;BME280;40964;42.114;24.220;2023-07-31T02:52:39;97230.13;;;20.78;97.36
55066;BME280;40964;42.114;24.220;2023-07-31T02:55:05;97230.44;;;20.77;97.44
55066;BME280;40964;42.114;24.220;2023-07-31T02:57:31;97244.06;;;20.75;95.59
55066;BME280;40964;42.114;24.220;2023-07-31T02:59:57;97243.50;;;20.78;95.73
55066;BME280;40964;42.114;24.220;2023-07-31T03:02:22;97248.13;;;20.73;92.58
55066;BME280;40964;42.114;24.220;2023-07-31T03:04:47;97249.72;;;20.87;95.21
55066;BME280;40964;42.114;24.220;2023-07-31T03:07:13;97250.63;;;20.96;95.53
55066;BME280;40964;42.114;24.220;2023-07-31T03:09:38;97253.97;;;21.02;98.17
55066;BME280;40964;42.114;24.220;2023-07-31T03:12:04;97243.50;;;21.06;97.55
55066;BME280;40964;42.114;24.220;2023-07-31T03:14:29;97243.38;;;21.11;97.03
55066;BME280;40964;42.114;24.220;2023-07-31T03:16:55;97256.66;;;21.16;96.03
55066;BME280;40964;42.114;24.220;2023-07-31T03:19:20;97245.56;;;21.09;92.73
55066;BME280;40964;42.114;24.220;2023-07-31T03:21:46;97262.91;;;21.25;92.35
55066;BME280;40964;42.114;24.220;2023-07-31T03:24:11;97256.09;;;21.33;94.56
55066;BME280;40964;42.114;24.220;2023-07-31T03:26:39;97269.16;;;21.34;91.78
55066;BME280;40964;42.114;24.220;2023-07-31T03:29:07;97271.94;;;21.43;91.03
55066;BME280;40964;42.114;24.220;2023-07-31T03:31:32;97290.84;;;21.46;88.76
55066;BME280;40964;42.114;24.220;2023-07-31T03:33:58;97295.91;;;21.48;87.90
55066;BME280;40964;42.114;24.220;2023-07-31T03:36:23;97312.06;;;21.43;89.89
55066;BME280;40964;42.114;24.220;2023-07-31T03:38:49;97311.03;;;21.25;89.99
55066;BME280;40964;42.114;24.220;2023-07-31T03:41:14;97315.59;;;21.11;91.06
55066;BME280;40964;42.114;24.220;2023-07-31T03:43:39;97314.00;;;21.10;91.27
55066;BME280;40964;42.114;24.220;2023-07-31T03:46:05;97325.78;;;21.09;90.21
55066;BME280;40964;42.114;24.220;2023-07-31T03:48:30;97326.88;;;21.08;90.25
55066;BME280;40964;42.114;24.220;2023-07-31T03:50:56;97317.75;;;21.09;92.59
55066;BME280;40964;42.114;24.220;2023-07-31T03:53:21;97323.59;;;21.11;92.48
55066;BME280;40964;42.114;24.220;2023-07-31T03:55:47;97327.28;;;21.15;92.12
55066;BME280;40964;42.114;24.220;2023-07-31T03:58:12;97327.38;;;21.10;92.56
55066;BME280;40964;42.114;24.220;2023-07-31T04:00:39;97297.97;;;20.96;91.70
55066;BME280;40964;42.114;24.220;2023-07-31T04:03:05;97326.28;;;21.11;91.59
55066;BME280;40964;42.114;24.220;2023-07-31T04:05:32;97320.63;;;20.98;92.94
55066;BME280;40964;42.114;24.220;2023-07-31T04:07:57;97326.78;;;21.13;90.72
55066;BME280;40964;42.114;24.220;2023-07-31T04:10:23;97329.84;;;21.20;90.14
55066;BME280;40964;42.114;24.220;2023-07-31T04:12:48;97322.84;;;21.24;91.82
55066;BME280;40964;42.114;24.220;2023-07-31T04:15:14;97334.03;;;21.26;91.03
55066;BME280;40964;42.114;24.220;2023-07-31T04:17:39;97337.44;;;21.32;90.88
55066;BME280;40964;42.114;24.220;2023-07-31T04:20:05;97329.50;;;21.40;89.38
55066;BME280;40964;42.114;24.220;2023-07-31T04:22:31;97337.03;;;21.52;90.62
55066;BME280;40964;42.114;24.220;2023-07-31T04:24:56;97330.78;;;21.57;90.13
55066;BME280;40964;42.114;24.220;2023-07-31T04:27:22;97319.97;;;21.62;90.36
55066;BME280;40964;42.114;24.220;2023-07-31T04:29:47;97323.53;;;21.71;88.79
55066;BME280;40964;42.114;24.220;2023-07-31T04:32:13;97324.03;;;21.73;87.52
55066;BME280;40964;42.114;24.220;2023-07-31T04:34:40;97324.53;;;21.75;87.04
55066;BME280;40964;42.114;24.220;2023-07-31T04:37:06;97334.25;;;21.71;87.06
55066;BME280;40964;42.114;24.220;2023-07-31T04:39:31;97340.38;;;21.71;88.79
55066;BME280;40964;42.114;24.220;2023-07-31T04:41:57;97341.56;;;21.79;88.00
55066;BME280;40964;42.114;24.220;2023-07-31T04:44:22;97338.81;;;21.84;86.56
55066;BME280;40964;42.114;24.220;2023-07-31T04:46:48;97336.47;;;21.91;86.12
55066;BME280;40964;42.114;24.220;2023-07-31T04:49:13;97343.72;;;22.04;85.53
55066;BME280;40964;42.114;24.220;2023-07-31T04:51:39;97346.34;;;22.54;84.55
55066;BME280;40964;42.114;24.220;2023-07-31T04:54:04;97351.34;;;22.70;83.87
55066;BME280;40964;42.114;24.220;2023-07-31T04:56:30;97348.66;;;22.70;82.92
55066;BME280;40964;42.114;24.220;2023-07-31T04:58:55;97344.69;;;22.67;82.56
55066;BME280;40964;42.114;24.220;2023-07-31T05:01:20;97344.75;;;22.76;82.99
55066;BME280;40964;42.114;24.220;2023-07-31T05:03:46;97338.78;;;22.79;83.84
55066;BME280;40964;42.114;24.220;2023-07-31T05:06:11;97334.41;;;22.83;83.29
55066;BME280;40964;42.114;24.220;2023-07-31T05:08:38;97346.78;;;22.92;80.94
55066;BME280;40964;42.114;24.220;2023-07-31T05:11:04;97336.09;;;23.01;80.17
55066;BME280;40964;42.114;24.220;2023-07-31T05:13:29;97334.09;;;23.15;79.60
55066;BME280;40964;42.114;24.220;2023-07-31T05:15:54;97337.81;;;23.28;79.76
55066;BME280;40964;42.114;24.220;2023-07-31T05:18:20;97332.31;;;23.42;77.73
55066;BME280;40964;42.114;24.220;2023-07-31T05:20:45;97332.16;;;23.87;74.27
55066;BME280;40964;42.114;24.220;2023-07-31T05:23:11;97333.13;;;23.91;72.43
55066;BME280;40964;42.114;24.220;2023-07-31T05:25:36;97339.28;;;24.00;76.09
55066;BME280;40964;42.114;24.220;2023-07-31T05:28:01;97342.56;;;23.79;73.52
55066;BME280;40964;42.114;24.220;2023-07-31T05:30:29;97321.84;;;23.71;72.39
55066;BME280;40964;42.114;24.220;2023-07-31T05:32:55;97329.44;;;23.78;71.67
55066;BME280;40964;42.114;24.220;2023-07-31T05:35:20;97325.84;;;24.00;72.59
55066;BME280;40964;42.114;24.220;2023-07-31T05:37:46;97321.09;;;24.14;70.19
55066;BME280;40964;42.114;24.220;2023-07-31T05:40:11;97333.47;;;24.32;67.58
55066;BME280;40964;42.114;24.220;2023-07-31T05:42:36;97321.47;;;24.39;66.85
55066;BME280;40964;42.114;24.220;2023-07-31T05:45:05;97321.00;;;24.37;67.66
55066;BME280;40964;42.114;24.220;2023-07-31T05:47:30;97328.88;;;24.59;69.41
55066;BME280;40964;42.114;24.220;2023-07-31T05:49:56;97317.91;;;24.81;65.33
55066;BME280;40964;42.114;24.220;2023-07-31T05:52:21;97320.56;;;24.99;66.56
55066;BME280;40964;42.114;24.220;2023-07-31T05:54:46;97314.22;;;24.95;64.29
55066;BME280;40964;42.114;24.220;2023-07-31T05:57:12;97321.31;;;25.16;66.64
55066;BME280;40964;42.114;24.220;2023-07-31T05:59:37;97325.56;;;25.26;64.43
55066;BME280;40964;42.114;24.220;2023-07-31T06:02:03;97326.16;;;25.32;64.17
55066;BME280;40964;42.114;24.220;2023-07-31T06:04:29;97325.19;;;25.36;63.81
55066;BME280;40964;42.114;24.220;2023-07-31T06:06:54;97332.88;;;25.17;64.61
55066;BME280;40964;42.114;24.220;2023-07-31T06:09:20;97329.75;;;24.89;65.60
55066;BME280;40964;42.114;24.220;2023-07-31T06:11:46;97345.63;;;24.73;65.83
55066;BME280;40964;42.114;24.220;2023-07-31T06:14:11;97338.84;;;24.50;66.29
55066;BME280;40964;42.114;24.220;2023-07-31T06:16:37;97344.97;;;24.24;67.74
55066;BME280;40964;42.114;24.220;2023-07-31T06:19:02;97337.88;;;24.11;67.81
55066;BME280;40964;42.114;24.220;2023-07-31T06:21:28;97336.75;;;24.03;67.79
55066;BME280;40964;42.114;24.220;2023-07-31T06:23:53;97327.56;;;23.96;68.95
55066;BME280;40964;42.114;24.220;2023-07-31T06:26:19;97328.22;;;24.01;69.27
55066;BME280;40964;42.114;24.220;2023-07-31T06:28:44;97334.06;;;23.95;69.16
55066;BME280;40964;42.114;24.220;2023-07-31T06:31:10;97328.38;;;23.96;69.43
55066;BME280;40964;42.114;24.220;2023-07-31T06:33:35;97332.97;;;24.04;69.29
55066;BME280;40964;42.114;24.220;2023-07-31T06:36:02;97336.63;;;24.34;67.56
55066;BME280;40964;42.114;24.220;2023-07-31T06:38:27;97341.03;;;24.65;69.01
55066;BME280;40964;42.114;24.220;2023-07-31T06:40:53;97342.59;;;24.83;65.39
55066;BME280;40964;42.114;24.220;2023-07-31T06:43:19;97347.31;;;25.04;65.64
55066;BME280;40964;42.114;24.220;2023-07-31T06:45:44;97344.88;;;25.19;65.13
55066;BME280;40964;42.114;24.220;2023-07-31T06:48:11;97347.16;;;25.00;66.04
55066;BME280;40964;42.114;24.220;2023-07-31T06:50:36;97346.59;;;25.24;68.12
55066;BME280;40964;42.114;24.220;2023-07-31T06:53:02;97354.28;;;25.43;65.87
55066;BME280;40964;42.114;24.220;2023-07-31T06:55:27;97351.72;;;25.55;63.54
55066;BME280;40964;42.114;24.220;2023-07-31T06:57:54;97347.25;;;25.21;64.89
55066;BME280;40964;42.114;24.220;2023-07-31T07:00:21;97357.13;;;25.00;65.05
55066;BME280;40964;42.114;24.220;2023-07-31T07:02:48;97354.09;;;25.18;64.58
55066;BME280;40964;42.114;24.220;2023-07-31T07:05:14;97347.31;;;25.42;63.59
55066;BME280;40964;42.114;24.220;2023-07-31T07:07:41;97351.13;;;25.79;63.58
55066;BME280;40964;42.114;24.220;2023-07-31T07:10:07;97360.22;;;25.95;62.36
55066;BME280;40964;42.114;24.220;2023-07-31T07:12:34;97362.47;;;26.14;61.07
55066;BME280;40964;42.114;24.220;2023-07-31T07:15:00;97356.28;;;26.14;61.14
55066;BME280;40964;42.114;24.220;2023-07-31T07:17:27;97360.66;;;26.27;61.76
55066;BME280;40964;42.114;24.220;2023-07-31T07:19:52;97357.34;;;26.63;60.46
55066;BME280;40964;42.114;24.220;2023-07-31T07:22:18;97353.13;;;26.74;59.47
55066;BME280;40964;42.114;24.220;2023-07-31T07:24:44;97350.88;;;27.09;58.49
55066;BME280;40964;42.114;24.220;2023-07-31T07:27:09;97353.38;;;27.39;58.13
55066;BME280;40964;42.114;24.220;2023-07-31T07:29:35;97355.22;;;27.59;54.44
55066;BME280;40964;42.114;24.220;2023-07-31T07:32:00;97354.53;;;27.75;55.12
55066;BME280;40964;42.114;24.220;2023-07-31T07:34:27;97347.34;;;27.79;56.79
55066;BME280;40964;42.114;24.220;2023-07-31T07:36:53;97352.50;;;27.47;56.43
55066;BME280;40964;42.114;24.220;2023-07-31T07:39:18;97346.09;;;27.52;55.96
55066;BME280;40964;42.114;24.220;2023-07-31T07:41:44;97348.47;;;27.41;56.12
55066;BME280;40964;42.114;24.220;2023-07-31T07:44:09;97342.25;;;27.28;54.93
55066;BME280;40964;42.114;24.220;2023-07-31T07:46:35;97353.19;;;27.44;55.10
55066;BME280;40964;42.114;24.220;2023-07-31T07:49:00;97348.00;;;27.76;54.96
55066;BME280;40964;42.114;24.220;2023-07-31T07:51:26;97346.22;;;27.80;53.96
55066;BME280;40964;42.114;24.220;2023-07-31T07:53:52;97335.06;;;27.81;53.08
55066;BME280;40964;42.114;24.220;2023-07-31T07:56:17;97347.22;;;27.87;53.36
55066;BME280;40964;42.114;24.220;2023-07-31T07:58:43;97340.44;;;27.93;53.83
55066;BME280;40964;42.114;24.220;2023-07-31T08:01:08;97343.56;;;28.32;51.74
55066;BME280;40964;42.114;24.220;2023-07-31T08:03:33;97345.66;;;28.26;50.94
55066;BME280;40964;42.114;24.220;2023-07-31T08:06:00;97345.56;;;28.63;49.79
55066;BME280;40964;42.114;24.220;2023-07-31T08:08:26;97338.22;;;28.64;49.63
55066;BME280;40964;42.114;24.220;2023-07-31T08:10:52;97346.41;;;28.79;47.52
55066;BME280;40964;42.114;24.220;2023-07-31T08:13:17;97341.53;;;28.57;47.01
55066;BME280;40964;42.114;24.220;2023-07-31T08:15:42;97342.66;;;28.56;48.21
55066;BME280;40964;42.114;24.220;2023-07-31T08:18:08;97337.75;;;28.46;47.89
55066;BME280;40964;42.114;24.220;2023-07-31T08:20:34;97341.78;;;28.52;48.17
55066;BME280;40964;42.114;24.220;2023-07-31T08:22:59;97340.41;;;28.58;47.25
55066;BME280;40964;42.114;24.220;2023-07-31T08:25:25;97328.31;;;28.68;47.07
55066;BME280;40964;42.114;24.220;2023-07-31T08:27:50;97330.66;;;28.97;46.65
55066;BME280;40964;42.114;24.220;2023-07-31T08:30:18;97340.72;;;29.13;45.32
55066;BME280;40964;42.114;24.220;2023-07-31T08:32:44;97327.88;;;29.25;44.68
55066;BME280;40964;42.114;24.220;2023-07-31T08:35:10;97329.72;;;29.21;45.12
55066;BME280;40964;42.114;24.220;2023-07-31T08:37:37;97329.09;;;29.28;44.59
55066;BME280;40964;42.114;24.220;2023-07-31T08:40:03;97327.72;;;29.50;45.62
55066;BME280;40964;42.114;24.220;2023-07-31T08:42:29;97330.19;;;29.74;44.09
55066;BME280;40964;42.114;24.220;2023-07-31T08:44:55;97317.69;;;29.85;43.67
55066;BME280;40964;42.114;24.220;2023-07-31T08:47:21;97326.44;;;29.79;43.32
55066;BME280;40964;42.114;24.220;2023-07-31T08:49:47;97330.66;;;28.97;43.99
55066;BME280;40964;42.114;24.220;2023-07-31T08:52:13;97328.94;;;28.77;46.46
55066;BME280;40964;42.114;24.220;2023-07-31T08:54:38;97330.03;;;28.60;46.84
55066;BME280;40964;42.114;24.220;2023-07-31T08:57:07;97328.59;;;28.50;46.08
55066;BME280;40964;42.114;24.220;2023-07-31T08:59:35;97329.47;;;28.54;46.55
55066;BME280;40964;42.114;24.220;2023-07-31T09:02:05;97313.34;;;29.02;46.18
55066;BME280;40964;42.114;24.220;2023-07-31T09:04:32;97317.38;;;29.39;43.72
55066;BME280;40964;42.114;24.220;2023-07-31T09:07:00;97314.28;;;29.73;43.52
55066;BME280;40964;42.114;24.220;2023-07-31T09:09:28;97305.34;;;29.88;43.76
55066;BME280;40964;42.114;24.220;2023-07-31T09:11:54;97305.53;;;30.14;43.71
55066;BME280;40964;42.114;24.220;2023-07-31T09:14:21;97314.31;;;30.08;41.91
55066;BME280;40964;42.114;24.220;2023-07-31T09:16:56;97314.97;;;30.20;42.07
55066;BME280;40964;42.114;24.220;2023-07-31T09:19:33;97316.03;;;30.35;42.52
55066;BME280;40964;42.114;24.220;2023-07-31T09:21:59;97310.97;;;29.99;42.59
55066;BME280;40964;42.114;24.220;2023-07-31T09:24:26;97313.91;;;29.90;44.24
55066;BME280;40964;42.114;24.220;2023-07-31T09:26:53;97305.28;;;29.84;43.41
55066;BME280;40964;42.114;24.220;2023-07-31T09:29:20;97310.25;;;29.82;44.73
55066;BME280;40964;42.114;24.220;2023-07-31T09:31:45;97315.97;;;30.32;42.86
55066;BME280;40964;42.114;24.220;2023-07-31T09:34:11;97311.03;;;30.57;41.89
55066;BME280;40964;42.114;24.220;2023-07-31T09:36:46;97311.59;;;30.08;43.00
55066;BME280;40964;42.114;24.220;2023-07-31T09:39:13;97308.66;;;29.81;42.43
55066;BME280;40964;42.114;24.220;2023-07-31T09:41:43;97301.84;;;30.22;43.22
55066;BME280;40964;42.114;24.220;2023-07-31T09:44:09;97308.03;;;29.88;42.75
55066;BME280;40964;42.114;24.220;2023-07-31T09:46:35;97310.81;;;29.40;43.47
55066;BME280;40964;42.114;24.220;2023-07-31T09:49:09;97304.63;;;29.08;43.76
55066;BME280;40964;42.114;24.220;2023-07-31T09:51:36;97297.38;;;29.60;44.46
55066;BME280;40964;42.114;24.220;2023-07-31T09:54:14;97297.25;;;29.91;42.80
55066;BME280;40964;42.114;24.220;2023-07-31T09:56:46;97296.53;;;30.10;43.20
55066;BME280;40964;42.114;24.220;2023-07-31T09:59:14;97297.25;;;30.27;41.92
55066;BME280;40964;42.114;24.220;2023-07-31T10:01:41;97298.28;;;30.38;41.70
55066;BME280;40964;42.114;24.220;2023-07-31T10:04:09;97299.16;;;30.45;42.92
55066;BME280;40964;42.114;24.220;2023-07-31T10:06:36;97299.31;;;30.52;40.91
55066;BME280;40964;42.114;24.220;2023-07-31T10:09:06;97295.56;;;30.38;40.48
55066;BME280;40964;42.114;24.220;2023-07-31T10:11:36;97293.16;;;30.75;40.29
55066;BME280;40964;42.114;24.220;2023-07-31T10:14:04;97288.59;;;31.02;39.95
55066;BME280;40964;42.114;24.220;2023-07-31T10:16:30;97285.25;;;31.35;38.59
55066;BME280;40964;42.114;24.220;2023-07-31T10:18:56;97285.13;;;31.51;37.17
55066;BME280;40964;42.114;24.220;2023-07-31T10:21:22;97286.16;;;31.43;37.32
55066;BME280;40964;42.114;24.220;2023-07-31T10:23:48;97271.47;;;31.21;37.01
55066;BME280;40964;42.114;24.220;2023-07-31T10:26:17;97275.19;;;31.13;37.90
55066;BME280;40964;42.114;24.220;2023-07-31T10:28:46;97268.59;;;31.37;37.36
55066;BME280;40964;42.114;24.220;2023-07-31T10:31:12;97267.72;;;31.29;38.10
55066;BME280;40964;42.114;24.220;2023-07-31T10:33:38;97258.84;;;31.35;37.42
55066;BME280;40964;42.114;24.220;2023-07-31T10:36:18;97265.00;;;31.55;36.78
55066;BME280;40964;42.114;24.220;2023-07-31T10:38:44;97254.72;;;31.19;36.87
55066;BME280;40964;42.114;24.220;2023-07-31T10:41:10;97257.31;;;31.12;37.07
55066;BME280;40964;42.114;24.220;2023-07-31T10:43:39;97247.91;;;31.28;37.49
55066;BME280;40964;42.114;24.220;2023-07-31T10:46:09;97248.69;;;31.55;36.70
55066;BME280;40964;42.114;24.220;2023-07-31T10:48:37;97247.94;;;31.58;35.53
55066;BME280;40964;42.114;24.220;2023-07-31T10:51:08;97246.78;;;31.59;35.51
55066;BME280;40964;42.114;24.220;2023-07-31T10:53:34;97247.00;;;31.47;35.70
55066;BME280;40964;42.114;24.220;2023-07-31T10:56:10;97251.50;;;31.36;36.14
55066;BME280;40964;42.114;24.220;2023-07-31T10:58:44;97249.00;;;31.50;35.94
55066;BME280;40964;42.114;24.220;2023-07-31T11:01:11;97240.22;;;31.34;35.51
55066;BME280;40964;42.114;24.220;2023-07-31T11:03:45;97229.28;;;31.57;35.64
55066;BME280;40964;42.114;24.220;2023-07-31T11:06:10;97231.22;;;31.83;35.32
55066;BME280;40964;42.114;24.220;2023-07-31T11:08:44;97231.78;;;31.99;35.39
55066;BME280;40964;42.114;24.220;2023-07-31T11:11:15;97216.91;;;31.89;35.66
55066;BME280;40964;42.114;24.220;2023-07-31T11:13:49;97213.41;;;32.23;35.47
55066;BME280;40964;42.114;24.220;2023-07-31T11:16:16;97227.78;;;32.57;35.23
55066;BME280;40964;42.114;24.220;2023-07-31T11:18:43;97228.19;;;32.25;35.19
55066;BME280;40964;42.114;24.220;2023-07-31T11:21:12;97229.59;;;32.08;35.22
55066;BME280;40964;42.114;24.220;2023-07-31T11:23:38;97222.69;;;31.58;35.93
55066;BME280;40964;42.114;24.220;2023-07-31T11:26:05;97227.84;;;31.14;36.39
55066;BME280;40964;42.114;24.220;2023-07-31T11:28:33;97223.75;;;31.50;37.16
55066;BME280;40964;42.114;24.220;2023-07-31T11:31:02;97228.50;;;31.83;35.76
55066;BME280;40964;42.114;24.220;2023-07-31T11:33:28;97229.16;;;32.06;35.74
55066;BME280;40964;42.114;24.220;2023-07-31T11:35:53;97218.84;;;32.23;34.48
55066;BME280;40964;42.114;24.220;2023-07-31T11:38:29;97217.50;;;32.43;34.89
55066;BME280;40964;42.114;24.220;2023-07-31T11:41:00;97216.44;;;32.51;35.12
55066;BME280;40964;42.114;24.220;2023-07-31T11:43:27;97215.16;;;32.38;34.05
55066;BME280;40964;42.114;24.220;2023-07-31T11:45:58;97206.63;;;32.43;34.09
55066;BME280;40964;42.114;24.220;2023-07-31T11:48:28;97209.16;;;32.62;33.44
55066;BME280;40964;42.114;24.220;2023-07-31T11:50:57;97218.75;;;32.49;33.93
55066;BME280;40964;42.114;24.220;2023-07-31T11:53:44;97211.56;;;32.71;33.93
55066;BME280;40964;42.114;24.220;2023-07-31T11:56:13;97206.94;;;32.79;33.73
55066;BME280;40964;42.114;24.220;2023-07-31T11:58:40;97204.66;;;32.81;33.05
55066;BME280;40964;42.114;24.220;2023-07-31T12:01:07;97200.34;;;32.80;32.57
55066;BME280;40964;42.114;24.220;2023-07-31T12:03:33;97182.72;;;33.14;34.41
55066;BME280;40964;42.114;24.220;2023-07-31T12:05:59;97183.94;;;33.20;33.39
55066;BME280;40964;42.114;24.220;2023-07-31T12:08:25;97205.38;;;32.78;34.01
55066;BME280;40964;42.114;24.220;2023-07-31T12:10:52;97201.09;;;32.32;35.20
55066;BME280;40964;42.114;24.220;2023-07-31T12:13:25;97198.75;;;32.34;35.22
55066;BME280;40964;42.114;24.220;2023-07-31T12:15:55;97199.72;;;32.15;35.68
55066;BME280;40964;42.114;24.220;2023-07-31T12:18:23;97188.19;;;32.29;35.11
55066;BME280;40964;42.114;24.220;2023-07-31T12:20:54;97189.59;;;32.50;34.20
55066;BME280;40964;42.114;24.220;2023-07-31T12:23:22;97182.13;;;32.43;35.25
55066;BME280;40964;42.114;24.220;2023-07-31T12:28:49;97175.66;;;31.84;34.93
55066;BME280;40964;42.114;24.220;2023-07-31T12:31:17;97173.66;;;32.14;35.21
55066;BME280;40964;42.114;24.220;2023-07-31T12:33:43;97169.78;;;32.15;36.01
55066;BME280;40964;42.114;24.220;2023-07-31T12:36:11;97167.53;;;32.25;35.07
55066;BME280;40964;42.114;24.220;2023-07-31T12:38:37;97164.31;;;32.12;35.67
55066;BME280;40964;42.114;24.220;2023-07-31T12:41:02;97170.25;;;32.25;35.26
55066;BME280;40964;42.114;24.220;2023-07-31T12:43:28;97149.94;;;32.15;34.74
55066;BME280;40964;42.114;24.220;2023-07-31T12:45:56;97139.25;;;32.33;34.83
55066;BME280;40964;42.114;24.220;2023-07-31T12:48:22;97156.13;;;32.49;34.13
55066;BME280;40964;42.114;24.220;2023-07-31T12:50:48;97162.28;;;32.42;34.87
55066;BME280;40964;42.114;24.220;2023-07-31T12:53:15;97151.38;;;32.35;34.54
55066;BME280;40964;42.114;24.220;2023-07-31T12:55:40;97145.44;;;32.74;33.55
55066;BME280;40964;42.114;24.220;2023-07-31T12:58:06;97153.34;;;32.86;33.67